This is the latest recevied weather packets stored in our database for station/object EMGATE. If no packets are shown the sender has not sent any weather packets the latest 10 day(s).
| Time | Temp. | Humidity | Pressure | Rain* | Wind** | Luminosity | Snow |
|---|---|---|---|---|---|---|---|
| 1777141445 | 13.33° C | 43% | 1018 hPa | 0 mm | - | - | - |
| 1777140545 | 13.33° C | 41% | 1018.1 hPa | 0 mm | - | - | - |
| 1777139645 | 12.78° C | 43% | 1018.2 hPa | 0 mm | - | - | - |
| 1777138745 | 12.78° C | 43% | 1018.3 hPa | 0 mm | - | - | - |
| 1777137845 | 13.33° C | 41% | 1018.4 hPa | 0 mm | - | - | - |
| 1777136946 | 12.78° C | 40% | 1018.6 hPa | 0 mm | - | - | - |
| 1777136046 | 12.78° C | 40% | 1018.8 hPa | 0 mm | - | - | - |
| 1777135146 | 12.78° C | 42% | 1019 hPa | 0 mm | - | - | - |
| 1777134246 | 12.78° C | 43% | 1019.2 hPa | 0 mm | - | - | - |
| 1777133346 | 11.67° C | 48% | 1019.2 hPa | 0 mm | - | - | - |
| 1777132446 | 12.22° C | 45% | 1019.3 hPa | 0 mm | - | - | - |
| 1777131546 | 12.22° C | 45% | 1019.5 hPa | 0 mm | - | - | - |
| 1777130646 | 12.22° C | 47% | 1019.7 hPa | 0 mm | - | - | - |
| 1777129746 | 11.67° C | 50% | 1019.8 hPa | 0 mm | - | - | - |
| 1777128846 | 11.11° C | 50% | 1020.1 hPa | 0 mm | - | - | - |
| 1777127946 | 11.11° C | 52% | 1020.3 hPa | 0 mm | - | - | - |
| 1777127046 | 10.56° C | 53% | 1020.4 hPa | 0 mm | - | - | - |
| 1777126146 | 10.56° C | 54% | 1020.5 hPa | 0 mm | - | - | - |
| 1777125246 | 10° C | 55% | 1020.6 hPa | 0 mm | - | - | - |
| 1777124346 | 10° C | 54% | 1020.8 hPa | 0 mm | - | - | - |
| 1777123446 | 10° C | 56% | 1020.7 hPa | 0 mm | - | - | - |
| 1777122546 | 8.89° C | 58% | 1020.8 hPa | 0 mm | - | - | - |
| 1777121646 | 8.33° C | 60% | 1020.9 hPa | 0 mm | - | - | - |
| 1777120746 | 7.78° C | 61% | 1020.8 hPa | 0 mm | - | - | - |
| 1777119846 | 7.22° C | 59% | 1020.8 hPa | 0 mm | - | - | - |
* Rain latest hour (hover to see other rain measurements)
** Current wind speed in m/s (hover to see current wind gust speed)